createdAt,value
2022-12-15T00:02:35.466Z,16.48
2022-12-15T00:05:21.423Z,15.18
2022-12-15T00:08:06.821Z,15.48
2022-12-15T00:10:52.069Z,11.85
2022-12-15T00:13:37.814Z,19.13
2022-12-15T00:16:23.611Z,21.60
2022-12-15T00:19:08.982Z,20.20
2022-12-15T00:21:54.737Z,19.60
2022-12-15T00:24:40.175Z,22.48
2022-12-15T00:27:25.572Z,17.58
2022-12-15T00:30:10.714Z,10.73
2022-12-15T00:32:56.092Z,19.05
2022-12-15T00:35:41.523Z,15.27
2022-12-15T00:38:33.147Z,16.35
2022-12-15T00:41:03.919Z,14.98
2022-12-15T00:43:32.897Z,19.25
2022-12-15T00:46:19.736Z,14.20
2022-12-15T00:48:47.186Z,12.63
2022-12-15T00:51:15.280Z,27.00
2022-12-15T00:54:01.501Z,15.20
2022-12-15T00:56:47.809Z,23.90
2022-12-15T00:59:33.846Z,15.10
2022-12-15T01:02:19.796Z,16.33
2022-12-15T01:05:05.309Z,19.23
2022-12-15T01:07:51.205Z,20.92
2022-12-15T01:10:37.887Z,14.98
2022-12-15T01:13:24.194Z,16.92
2022-12-15T01:16:09.672Z,17.90
2022-12-15T01:18:55.512Z,18.25
2022-12-15T01:21:24.916Z,21.17
2022-12-15T01:23:52.619Z,19.30
2022-12-15T01:26:19.427Z,14.15
2022-12-15T01:28:46.226Z,16.85
2022-12-15T01:31:13.185Z,15.10
2022-12-15T01:33:42.489Z,15.43
2022-12-15T01:36:10.534Z,20.77
2022-12-15T01:38:37.472Z,14.90
2022-12-15T01:41:12.567Z,14.02
2022-12-15T01:43:40.956Z,18.48
2022-12-15T01:46:11.331Z,19.67
2022-12-15T01:48:45.753Z,18.92
2022-12-15T01:51:40.358Z,16.63
2022-12-15T01:54:13.797Z,12.77
2022-12-15T01:56:45.173Z,18.25
2022-12-15T01:59:19.616Z,11.27
2022-12-15T02:01:49.785Z,19.77
2022-12-15T02:04:19.584Z,16.25
2022-12-15T02:06:46.526Z,16.45
2022-12-15T02:09:14.038Z,15.82
2022-12-15T02:12:11.041Z,18.77
2022-12-15T02:15:10.378Z,16.88
2022-12-15T02:17:55.936Z,15.38
2022-12-15T02:20:53.582Z,21.10
2022-12-15T02:23:58.889Z,20.25
2022-12-15T02:26:28.744Z,16.98
2022-12-15T02:29:10.220Z,16.23
2022-12-15T02:31:50.402Z,16.38
2022-12-15T02:34:55.897Z,16.38
2022-12-15T02:37:36.266Z,14.13
2022-12-15T02:40:05.508Z,18.63
2022-12-15T02:42:33.339Z,15.90
2022-12-15T02:45:05.183Z,16.38
2022-12-15T02:47:54.455Z,17.38
2022-12-15T02:50:43.265Z,12.02
2022-12-15T02:53:35.896Z,15.63
2022-12-15T02:56:33.548Z,13.55
2022-12-15T02:59:11.071Z,15.75
2022-12-15T03:01:49.838Z,13.48
2022-12-15T03:04:17.126Z,17.67
2022-12-15T03:06:44.183Z,14.88
2022-12-15T03:09:11.003Z,19.75
2022-12-15T03:11:37.993Z,14.20
2022-12-15T03:14:04.847Z,22.45
2022-12-15T03:16:31.715Z,11.38
2022-12-15T03:18:58.546Z,19.27
2022-12-15T03:21:25.422Z,14.00
2022-12-15T03:23:52.535Z,15.00
2022-12-15T03:26:19.404Z,22.27
2022-12-15T03:28:46.263Z,15.65
2022-12-15T03:31:13.102Z,15.10
2022-12-15T03:33:40.046Z,15.40
2022-12-15T03:36:07.304Z,13.57
2022-12-15T03:38:34.104Z,18.75
2022-12-15T03:41:01.116Z,18.27
2022-12-15T03:43:28.029Z,10.13
2022-12-15T03:45:55.066Z,11.35
2022-12-15T03:48:22.866Z,18.20
2022-12-15T03:50:50.155Z,12.50
2022-12-15T03:53:17.368Z,8.88
2022-12-15T03:55:44.173Z,14.02
2022-12-15T03:58:11.132Z,14.63
2022-12-15T04:00:38.063Z,15.50
2022-12-15T04:03:05.134Z,12.35
2022-12-15T04:05:34.743Z,12.60
2022-12-15T04:08:02.132Z,15.45
2022-12-15T04:10:34.432Z,14.90
2022-12-15T04:13:05.276Z,13.40
2022-12-15T04:15:33.104Z,23.00
2022-12-15T04:18:02.804Z,21.40
2022-12-15T04:20:29.766Z,13.63
2022-12-15T04:22:56.659Z,9.38
2022-12-15T04:25:43.873Z,17.40
2022-12-15T04:28:31.318Z,10.65
2022-12-15T04:31:24.886Z,11.40
2022-12-15T04:34:13.303Z,10.10
2022-12-15T04:37:01.143Z,11.15
2022-12-15T04:39:46.802Z,14.48
2022-12-15T04:42:32.227Z,12.07
2022-12-15T04:45:21.267Z,14.05
2022-12-15T04:48:08.072Z,12.13
2022-12-15T04:50:54.307Z,8.10
2022-12-15T04:53:40.230Z,11.05
2022-12-15T04:56:33.631Z,11.82
2022-12-15T04:59:20.004Z,13.98
2022-12-15T05:02:05.556Z,12.80
2022-12-15T05:04:51.041Z,13.52
2022-12-15T05:07:36.518Z,14.15
2022-12-15T05:10:23.391Z,16.83
2022-12-15T05:13:08.988Z,17.67
2022-12-15T05:15:54.426Z,13.05
2022-12-15T05:18:39.702Z,14.35
2022-12-15T05:21:25.469Z,10.95
2022-12-15T05:24:10.806Z,11.48
2022-12-15T05:26:56.677Z,15.20
2022-12-15T05:29:42.281Z,15.13
2022-12-15T05:32:09.146Z,13.18
2022-12-15T05:34:36.715Z,17.75
2022-12-15T05:37:05.604Z,17.02
2022-12-15T05:39:33.031Z,11.35
2022-12-15T05:41:59.862Z,16.85
2022-12-15T05:44:28.138Z,13.38
2022-12-15T05:46:54.962Z,18.33
2022-12-15T05:49:24.393Z,17.05
2022-12-15T05:51:51.292Z,12.90
2022-12-15T05:54:19.959Z,17.35
2022-12-15T05:56:50.411Z,14.85
2022-12-15T05:59:19.135Z,11.48
2022-12-15T06:01:46.856Z,17.10
2022-12-15T06:04:14.207Z,15.63
2022-12-15T06:06:42.024Z,13.25
2022-12-15T06:09:09.630Z,16.75
2022-12-15T06:11:37.489Z,9.05
2022-12-15T06:14:04.513Z,11.48
2022-12-15T06:16:31.749Z,15.00
2022-12-15T06:19:01.367Z,12.55
2022-12-15T06:21:37.310Z,12.13
2022-12-15T06:24:05.774Z,9.48
2022-12-15T06:26:38.515Z,13.35
2022-12-15T06:29:08.736Z,18.25
2022-12-15T06:31:37.054Z,10.77
2022-12-15T06:34:06.122Z,12.52
2022-12-15T06:36:33.035Z,21.58
2022-12-15T06:39:04.467Z,14.98
2022-12-15T06:41:31.705Z,9.20
2022-12-15T06:43:59.292Z,15.95
2022-12-15T06:46:28.221Z,16.55
2022-12-15T06:48:55.252Z,15.75
2022-12-15T06:51:22.278Z,14.48
2022-12-15T06:53:49.863Z,19.90
2022-12-15T06:56:28.647Z,18.33
2022-12-15T06:58:59.680Z,18.38
2022-12-15T07:01:26.763Z,12.25
2022-12-15T07:03:54.669Z,18.25
2022-12-15T07:06:21.947Z,10.68
2022-12-15T07:08:52.520Z,13.55
2022-12-15T07:11:21.621Z,19.75
2022-12-15T07:13:52.843Z,17.58
2022-12-15T07:16:21.402Z,12.35
2022-12-15T07:18:48.555Z,37.53
2022-12-15T07:21:15.770Z,14.18
2022-12-15T07:23:58.549Z,12.80
2022-12-15T07:26:26.091Z,11.30
2022-12-15T07:28:53.913Z,13.43
2022-12-15T07:31:21.709Z,13.10
2022-12-15T07:33:48.821Z,20.67
2022-12-15T07:36:16.086Z,15.25
2022-12-15T07:38:50.001Z,12.73
2022-12-15T07:41:19.901Z,13.77
2022-12-15T07:43:47.754Z,13.82
2022-12-15T07:46:15.129Z,12.50
2022-12-15T07:48:41.998Z,17.08
2022-12-15T07:51:17.072Z,21.10
2022-12-15T07:53:46.343Z,13.80
2022-12-15T07:56:13.860Z,14.85
2022-12-15T07:58:40.844Z,15.13
2022-12-15T08:01:10.399Z,18.10
2022-12-15T08:03:38.183Z,14.50
2022-12-15T08:06:07.228Z,17.05
2022-12-15T08:08:35.605Z,15.25
2022-12-15T08:11:07.164Z,12.18
2022-12-15T08:16:21.947Z,21.48
2022-12-15T08:18:49.023Z,14.20
2022-12-15T08:21:16.174Z,15.82
2022-12-15T08:23:43.189Z,12.60
2022-12-15T08:26:15.580Z,16.10
2022-12-15T08:28:43.391Z,15.98
2022-12-15T08:31:17.175Z,26.20
2022-12-15T08:33:45.531Z,14.73
2022-12-15T08:36:14.315Z,16.67
2022-12-15T08:38:42.540Z,19.23
2022-12-15T08:41:15.994Z,18.00
2022-12-15T08:43:48.277Z,15.82
2022-12-15T08:46:21.267Z,14.90
2022-12-15T08:48:48.713Z,16.42
2022-12-15T08:51:16.198Z,13.63
2022-12-15T08:53:43.304Z,14.90
2022-12-15T08:56:15.217Z,14.18
2022-12-15T08:58:43.023Z,15.07
2022-12-15T09:01:23.751Z,13.18
2022-12-15T09:03:55.941Z,20.92
2022-12-15T09:06:29.412Z,15.70
2022-12-15T09:08:57.730Z,15.25
2022-12-15T09:11:25.813Z,13.98
2022-12-15T09:13:53.241Z,15.43
2022-12-15T09:16:21.456Z,18.77
2022-12-15T09:18:54.801Z,15.73
2022-12-15T09:21:23.907Z,27.75
2022-12-15T09:23:52.196Z,15.95
2022-12-15T09:26:21.276Z,11.05
2022-12-15T09:28:50.297Z,16.42
2022-12-15T09:31:28.410Z,13.35
2022-12-15T09:34:00.968Z,11.57
2022-12-15T09:36:30.148Z,13.52
2022-12-15T09:38:57.292Z,20.55
2022-12-15T09:41:27.973Z,12.85
2022-12-15T09:44:10.602Z,15.07
2022-12-15T09:47:05.821Z,16.35
2022-12-15T09:49:54.515Z,17.73
2022-12-15T09:52:41.795Z,13.93
2022-12-15T09:55:26.716Z,15.50
2022-12-15T09:57:55.972Z,14.00
2022-12-15T10:00:26.009Z,13.00
2022-12-15T10:03:11.514Z,12.57
2022-12-15T10:06:17.670Z,11.35
2022-12-15T10:08:54.040Z,12.25
2022-12-15T10:14:17.454Z,11.38
2022-12-15T10:17:12.158Z,19.80
2022-12-15T10:22:22.944Z,21.10
2022-12-15T10:28:03.720Z,14.55
2022-12-15T10:30:30.760Z,13.13
2022-12-15T10:33:24.231Z,13.43
2022-12-15T10:35:54.173Z,11.40
2022-12-15T10:38:39.003Z,15.73
2022-12-15T10:41:14.663Z,13.13
2022-12-15T10:43:50.178Z,15.95
2022-12-15T10:46:22.762Z,14.40
2022-12-15T10:49:21.286Z,14.30
2022-12-15T10:52:00.538Z,18.25
2022-12-15T10:54:34.551Z,22.88
2022-12-15T10:57:20.244Z,15.93
2022-12-15T10:59:47.322Z,21.25
2022-12-15T11:02:34.539Z,9.98
2022-12-15T11:05:03.602Z,10.98
2022-12-15T11:07:35.281Z,11.50
2022-12-15T11:10:20.701Z,12.93
2022-12-15T11:13:12.343Z,12.43
2022-12-15T11:15:43.001Z,21.88
2022-12-15T11:18:31.075Z,11.00
2022-12-15T11:21:25.671Z,15.25
2022-12-15T11:24:18.640Z,16.02
2022-12-15T11:27:03.500Z,10.52
2022-12-15T11:29:55.757Z,25.05
2022-12-15T11:32:37.337Z,12.02
2022-12-15T11:35:06.413Z,12.00
2022-12-15T11:37:44.575Z,12.25
2022-12-15T11:40:26.310Z,10.13
2022-12-15T11:42:53.302Z,12.50
2022-12-15T11:45:44.543Z,12.15
2022-12-15T11:48:22.560Z,13.18
2022-12-15T11:50:58.936Z,24.42
2022-12-15T11:53:50.219Z,13.80
2022-12-15T11:56:42.025Z,16.17
2022-12-15T11:59:19.058Z,10.43
2022-12-15T12:01:55.437Z,13.32
2022-12-15T12:04:35.071Z,13.88
2022-12-15T12:07:16.015Z,9.32
2022-12-15T12:10:01.692Z,12.80
2022-12-15T12:12:41.394Z,13.25
2022-12-15T12:15:28.109Z,10.57
2022-12-15T12:18:14.326Z,16.00
2022-12-15T12:20:47.298Z,15.38
2022-12-15T12:23:24.279Z,10.80
2022-12-15T12:26:02.749Z,10.65
2022-12-15T12:28:59.249Z,19.60
2022-12-15T12:32:04.132Z,19.15
2022-12-15T12:35:32.094Z,11.50
2022-12-15T12:38:03.996Z,16.17
2022-12-15T12:40:40.248Z,22.80
2022-12-15T12:43:20.346Z,18.33
2022-12-15T12:45:54.599Z,20.75
2022-12-15T12:50:48.446Z,29.30
2022-12-15T12:53:32.893Z,14.35
2022-12-15T12:56:00.090Z,13.18
2022-12-15T12:58:45.644Z,21.50
2022-12-15T13:01:32.646Z,14.00
2022-12-15T13:04:11.977Z,14.73
2022-12-15T13:06:38.682Z,19.83
2022-12-15T13:09:17.695Z,31.55
2022-12-15T13:11:53.353Z,18.08
2022-12-15T13:14:26.152Z,17.10
2022-12-15T13:17:26.699Z,19.25
2022-12-15T13:19:59.367Z,25.92
2022-12-15T13:22:37.900Z,18.73
2022-12-15T13:25:27.600Z,14.55
2022-12-15T13:28:00.651Z,18.95
2022-12-15T13:30:27.911Z,18.40
2022-12-15T13:33:13.684Z,22.48
2022-12-15T13:35:43.042Z,28.23
2022-12-15T13:38:18.207Z,25.25
2022-12-15T13:40:44.949Z,14.70
2022-12-15T13:43:40.066Z,26.02
2022-12-15T13:46:15.033Z,15.45
2022-12-15T13:48:51.132Z,15.52
2022-12-15T13:51:21.436Z,23.63
2022-12-15T13:53:57.816Z,18.23
2022-12-15T13:56:48.964Z,17.85
2022-12-15T13:59:33.520Z,15.63
2022-12-15T14:02:00.765Z,22.25
2022-12-15T14:04:27.791Z,17.25
2022-12-15T14:07:00.914Z,26.83
2022-12-15T14:09:29.154Z,11.13
2022-12-15T14:11:56.754Z,20.33
2022-12-15T14:14:27.790Z,14.27
2022-12-15T14:17:02.940Z,14.50
2022-12-15T14:19:50.897Z,15.20
2022-12-15T14:22:29.706Z,18.73
2022-12-15T14:25:23.265Z,28.98
2022-12-15T14:27:50.924Z,17.98
2022-12-15T14:30:29.627Z,19.17
2022-12-15T14:33:18.339Z,22.20
2022-12-15T14:35:49.618Z,20.02
2022-12-15T14:38:22.709Z,20.17
2022-12-15T14:40:54.205Z,14.80
2022-12-15T14:43:25.157Z,14.65
2022-12-15T14:45:56.413Z,20.73
2022-12-15T14:48:42.128Z,16.65
2022-12-15T14:51:12.728Z,19.27
2022-12-15T14:53:42.269Z,18.00
2022-12-15T14:56:14.404Z,18.73
2022-12-15T14:58:41.879Z,16.48
2022-12-15T15:01:25.856Z,19.13
2022-12-15T15:04:04.121Z,22.90
2022-12-15T15:06:35.603Z,22.58
2022-12-15T15:09:27.294Z,19.70
2022-12-15T15:11:59.614Z,25.63
2022-12-15T15:14:37.375Z,16.55
2022-12-15T15:17:09.596Z,23.67
2022-12-15T15:19:40.298Z,20.20
2022-12-15T15:22:32.713Z,18.60
2022-12-15T15:24:59.681Z,22.92
2022-12-15T15:27:38.558Z,18.77
2022-12-15T15:30:19.334Z,20.92
2022-12-15T15:32:57.614Z,19.85
2022-12-15T15:35:30.719Z,22.45
2022-12-15T15:38:18.499Z,22.70
2022-12-15T15:40:57.259Z,18.75
2022-12-15T15:43:25.897Z,20.80
2022-12-15T15:46:14.720Z,24.00
2022-12-15T15:48:51.279Z,22.50
2022-12-15T15:51:18.904Z,25.10
2022-12-15T15:53:46.511Z,20.85
2022-12-15T15:56:16.430Z,19.95
2022-12-15T15:58:43.876Z,26.08
2022-12-15T16:01:13.294Z,24.48
2022-12-15T16:03:41.494Z,28.45
2022-12-15T16:06:19.854Z,28.52
2022-12-15T16:08:53.642Z,31.55
2022-12-15T16:11:22.902Z,29.17
2022-12-15T16:13:49.750Z,26.15
2022-12-15T16:16:22.374Z,30.67
2022-12-15T16:18:49.326Z,29.77
2022-12-15T16:21:17.676Z,22.50
2022-12-15T16:23:47.202Z,22.80
2022-12-15T16:26:17.371Z,25.08
2022-12-15T16:28:44.215Z,27.48
2022-12-15T16:31:24.801Z,23.85
2022-12-15T16:33:51.777Z,24.17
2022-12-15T16:36:18.614Z,24.40
2022-12-15T16:38:45.414Z,28.17
2022-12-15T16:41:16.416Z,24.05
2022-12-15T16:43:48.172Z,30.90
2022-12-15T16:46:16.014Z,27.85
2022-12-15T16:48:43.447Z,30.85
2022-12-15T16:51:34.436Z,25.90
2022-12-15T16:54:01.490Z,25.75
2022-12-15T16:56:28.477Z,24.30
2022-12-15T16:59:15.645Z,24.33
2022-12-15T17:01:44.692Z,28.15
2022-12-15T17:04:12.030Z,31.25
2022-12-15T17:06:39.287Z,29.00
2022-12-15T17:09:08.813Z,29.15
2022-12-15T17:11:35.942Z,26.98
2022-12-15T17:14:03.199Z,21.40
2022-12-15T17:16:30.231Z,19.77
2022-12-15T17:18:57.411Z,24.05
2022-12-15T17:21:31.940Z,29.08
2022-12-15T17:24:07.437Z,27.10
2022-12-15T17:26:36.827Z,40.47
2022-12-15T17:29:13.066Z,23.05
2022-12-15T17:31:39.949Z,33.08
2022-12-15T17:34:26.013Z,22.88
2022-12-15T17:36:53.313Z,21.17
2022-12-15T17:39:21.856Z,22.63
2022-12-15T17:42:01.018Z,21.90
2022-12-15T17:44:38.225Z,22.73
2022-12-15T17:47:07.730Z,32.55
2022-12-15T17:49:37.492Z,28.45
2022-12-15T17:52:21.427Z,29.70
2022-12-15T17:54:48.391Z,21.50
2022-12-15T17:57:15.260Z,24.63
2022-12-15T17:59:42.213Z,23.60
2022-12-15T18:02:13.194Z,27.02
2022-12-15T18:04:41.060Z,26.42
2022-12-15T18:07:16.804Z,25.77
2022-12-15T18:09:43.868Z,25.42
2022-12-15T18:12:21.159Z,29.48
2022-12-15T18:14:48.210Z,35.13
2022-12-15T18:17:15.683Z,29.92
2022-12-15T18:19:42.490Z,30.20
2022-12-15T18:22:22.099Z,33.47
2022-12-15T18:24:51.005Z,25.80
2022-12-15T18:27:26.328Z,27.83
2022-12-15T18:29:53.498Z,27.67
2022-12-15T18:32:23.919Z,25.67
2022-12-15T18:34:50.973Z,32.03
2022-12-15T18:37:19.692Z,29.35
2022-12-15T18:39:47.261Z,28.75
2022-12-15T18:42:16.457Z,33.70
2022-12-15T18:44:50.302Z,28.70
2022-12-15T18:47:19.934Z,30.33
2022-12-15T18:49:47.379Z,26.45
2022-12-15T18:52:20.382Z,27.90
2022-12-15T18:54:52.488Z,21.85
2022-12-15T18:57:27.570Z,27.30
2022-12-15T18:59:57.864Z,31.35
2022-12-15T19:02:25.013Z,25.52
2022-12-15T19:04:51.870Z,29.13
2022-12-15T19:07:18.800Z,28.85
2022-12-15T19:09:45.759Z,35.70
2022-12-15T19:12:18.278Z,30.80
2022-12-15T19:14:50.232Z,26.42
2022-12-15T19:17:40.602Z,27.90
2022-12-15T19:20:37.847Z,33.17
2022-12-15T19:23:05.589Z,22.40
2022-12-15T19:25:32.987Z,29.40
2022-12-15T19:28:00.612Z,23.70
2022-12-15T19:30:30.164Z,28.70
2022-12-15T19:32:57.340Z,27.10
2022-12-15T19:35:25.984Z,30.42
2022-12-15T19:37:55.881Z,34.28
2022-12-15T19:40:30.541Z,30.20
2022-12-15T19:42:58.608Z,28.58
2022-12-15T19:45:28.502Z,22.48
2022-12-15T19:47:55.901Z,24.15
2022-12-15T19:50:24.914Z,36.72
2022-12-15T19:52:56.156Z,31.52
2022-12-15T19:55:32.684Z,27.77
2022-12-15T19:58:00.945Z,30.60
2022-12-15T20:00:27.812Z,29.25
2022-12-15T20:02:56.089Z,26.05
2022-12-15T20:05:25.697Z,30.80
2022-12-15T20:07:54.619Z,34.17
2022-12-15T20:10:31.780Z,29.38
2022-12-15T20:12:59.595Z,25.02
2022-12-15T20:15:26.651Z,30.35
2022-12-15T20:17:57.236Z,35.20
2022-12-15T20:20:27.213Z,34.55
2022-12-15T20:22:57.624Z,30.73
2022-12-15T20:25:27.986Z,32.20
2022-12-15T20:27:55.204Z,38.90
2022-12-15T20:30:25.434Z,31.38
2022-12-15T20:32:52.658Z,29.10
2022-12-15T20:35:22.033Z,26.83
2022-12-15T20:37:49.958Z,24.30
2022-12-15T20:40:23.874Z,27.88
2022-12-15T20:42:51.757Z,26.58
2022-12-15T20:45:21.464Z,31.30
2022-12-15T20:47:50.830Z,28.95
2022-12-15T20:50:37.423Z,26.50
2022-12-15T20:53:06.011Z,26.45
2022-12-15T20:55:32.960Z,30.52
2022-12-15T20:57:59.764Z,28.55
2022-12-15T21:00:26.595Z,29.20
2022-12-15T21:02:55.262Z,32.35
2022-12-15T21:05:25.660Z,26.70
2022-12-15T21:07:52.984Z,37.88
2022-12-15T21:10:21.003Z,30.52
2022-12-15T21:12:50.233Z,25.25
2022-12-15T21:15:20.250Z,34.33
2022-12-15T21:17:57.879Z,33.67
2022-12-15T21:20:30.671Z,23.40
2022-12-15T21:22:57.762Z,34.50
2022-12-15T21:25:26.844Z,32.00
2022-12-15T21:27:53.723Z,44.60
2022-12-15T21:30:22.894Z,26.83
2022-12-15T21:32:50.908Z,30.10
2022-12-15T21:35:19.426Z,37.75
2022-12-15T21:37:49.560Z,28.58
2022-12-15T21:40:25.033Z,26.10
2022-12-15T21:42:53.349Z,28.63
2022-12-15T21:45:23.736Z,27.02
2022-12-15T21:48:10.549Z,30.67
2022-12-15T21:50:38.892Z,23.40
2022-12-15T21:53:06.532Z,27.73
2022-12-15T21:55:33.619Z,38.22
2022-12-15T21:58:00.448Z,32.97
2022-12-15T22:00:27.384Z,31.77
2022-12-15T22:02:54.825Z,44.58
2022-12-15T22:05:23.075Z,31.88
2022-12-15T22:07:50.708Z,33.53
2022-12-15T22:10:19.205Z,34.13
2022-12-15T22:12:57.462Z,34.17
2022-12-15T22:15:26.533Z,32.90
2022-12-15T22:17:53.434Z,29.30
2022-12-15T22:20:24.561Z,33.45
2022-12-15T22:22:51.661Z,28.58
2022-12-15T22:25:21.279Z,41.10
2022-12-15T22:27:48.762Z,39.13
2022-12-15T22:30:15.748Z,28.33
2022-12-15T22:32:42.666Z,47.85
2022-12-15T23:28:12.990Z,26.63
2022-12-15T23:30:39.827Z,23.23
2022-12-15T23:33:06.671Z,26.52
2022-12-15T23:35:33.854Z,31.42
2022-12-15T23:38:00.638Z,34.28
2022-12-15T23:40:27.462Z,28.85
2022-12-15T23:42:54.319Z,30.88
2022-12-15T23:45:22.211Z,26.38
2022-12-15T23:47:49.064Z,25.25
2022-12-15T23:50:15.957Z,32.65
2022-12-15T23:52:42.888Z,28.23
2022-12-15T23:55:10.489Z,25.90
2022-12-15T23:57:39.301Z,40.33
